Time;durP1;ratioP1;P1;durP2;ratioP2;P2;SDS_P1;SDS_P2;PMS_P1;PMS_P2;Temp;Humidity;BMP_temperature;BMP_pressure;BME280_temperature;BME280_humidity;BME280_pressure;Samples;Min_cycle;Max_cycle;Signal;HPM_P1;HPM_P2
2023/10/09 00:02:12;;;;;;;1.62;0.37;;;;;;;6.60;56.96;99994.56;1744851;82;21028;-75
2023/10/09 00:04:42;;;;;;;1.47;0.40;;;;;;;6.57;56.88;99995.44;1761789;81;21066;-76
2023/10/09 00:07:12;;;;;;;2.25;0.50;;;;;;;6.55;57.03;99996.98;1744963;82;21505;-74
2023/10/09 00:09:50;;;;;;;1.12;0.42;;;;;;;6.55;57.10;100001.06;1762192;81;21130;-76
2023/10/09 00:12:16;;;;;;;0.75;0.40;;;;;;;6.53;57.23;100000.41;1743591;82;21059;-75
2023/10/09 00:14:48;;;;;;;1.98;0.50;;;;;;;6.53;57.37;100003.13;1761824;81;21470;-74
2023/10/09 00:17:18;;;;;;;1.77;0.50;;;;;;;6.55;57.60;100013.83;1744580;82;21055;-75
2023/10/09 00:19:51;;;;;;;3.17;0.50;;;;;;;6.55;57.74;100007.88;1761468;81;21015;-76
2023/10/09 00:25:12;;;;;;;1.50;0.40;;;;;;;6.47;58.43;100003.81;1761747;81;21062;-76
2023/10/09 00:27:42;;;;;;;1.10;0.40;;;;;;;6.46;58.65;100015.73;1744708;82;21027;-75
2023/10/09 00:30:17;;;;;;;3.20;0.50;;;;;;;6.44;58.81;100016.94;1761905;81;21536;-76
2023/10/09 00:33:03;;;;;;;0.75;0.30;;;;;;;6.42;58.94;100017.12;1744711;82;21509;-75
2023/10/09 00:40:57;;;;;;;0.98;0.33;;;;;;;6.34;59.71;100030.27;1761842;81;21059;-76
2023/10/09 00:43:19;;;;;;;1.55;0.47;;;;;;;6.32;59.84;100035.03;1743720;82;21012;-75
2023/10/09 00:45:50;;;;;;;0.93;0.42;;;;;;;6.32;59.91;100032.83;1761730;81;21548;-75
2023/10/09 00:48:30;;;;;;;2.22;0.75;;;;;;;6.30;59.98;100045.25;1744657;82;21472;-74
2023/10/09 00:50:52;;;;;;;0.93;0.42;;;;;;;6.32;59.97;100045.08;1760115;81;21050;-75
2023/10/09 00:53:30;;;;;;;2.37;0.65;;;;;;;6.33;60.07;100038.60;1744832;82;21095;-73
2023/10/09 00:55:55;;;;;;;5.85;0.80;;;;;;;6.34;60.10;100041.66;1760533;81;21079;-75
2023/10/09 00:58:30;;;;;;;3.10;0.78;;;;;;;6.33;60.10;100054.93;1744914;82;21086;-75
2023/10/09 01:00:53;;;;;;;0.93;0.40;;;;;;;6.33;60.22;100057.66;1760572;81;21064;-75
2023/10/09 01:03:23;;;;;;;1.70;0.70;;;;;;;6.36;60.14;100060.02;1744654;82;21039;-76
2023/10/09 01:06:15;;;;;;;1.05;0.60;;;;;;;6.39;60.26;100064.25;1761692;81;21488;-74
2023/10/09 01:08:31;;;;;;;3.45;0.60;;;;;;;6.38;60.25;100043.51;1742353;82;21063;-75
2023/10/09 01:11:09;;;;;;;1.05;0.53;;;;;;;6.34;60.13;100062.91;1761673;81;21015;-75
2023/10/09 01:13:41;;;;;;;0.53;0.40;;;;;;;6.34;60.11;100064.78;1743784;82;21518;-75
2023/10/09 01:16:15;;;;;;;2.60;0.55;;;;;;;6.35;60.12;100074.64;1761948;81;21479;-73
2023/10/09 01:18:44;;;;;;;0.90;0.50;;;;;;;6.31;59.98;100076.03;1741266;82;21590;-75
2023/10/09 01:21:14;;;;;;;1.40;0.40;;;;;;;6.30;60.24;100083.86;1758817;81;21064;-76
2023/10/09 01:24:03;;;;;;;0.47;0.20;;;;;;;6.26;60.85;100079.80;1741502;82;21020;-75
2023/10/09 01:26:46;;;;;;;1.15;0.50;;;;;;;6.22;61.66;100084.74;1758725;81;21075;-76
2023/10/09 01:29:21;;;;;;;0.30;0.30;;;;;;;6.19;62.35;100081.53;1741700;82;21436;-74
2023/10/09 01:31:56;;;;;;;1.17;0.40;;;;;;;6.17;62.70;100079.50;1759034;81;21008;-75
2023/10/09 01:34:44;;;;;;;0.60;0.30;;;;;;;6.11;62.92;100095.17;1741750;82;21028;-74
2023/10/09 01:37:29;;;;;;;;;;;;;;;6.10;63.02;100101.63;1735624;81;21055;-76
2023/10/09 01:39:59;;;;;;;1.00;0.30;;;;;;;6.07;63.04;100101.98;1758989;81;20238;-75
2023/10/09 01:42:44;;;;;;;1.02;0.45;;;;;;;6.07;63.13;100108.78;1741471;82;21476;-75
2023/10/09 01:45:15;;;;;;;0.90;0.37;;;;;;;6.09;63.06;100110.30;1757581;81;21059;-74
2023/10/09 01:47:40;;;;;;;0.40;0.28;;;;;;;6.08;62.70;100101.81;1740526;82;21478;-76
2023/10/09 01:50:20;;;;;;;1.15;0.40;;;;;;;6.08;62.61;100110.48;1758779;81;21486;-75
2023/10/09 01:52:43;;;;;;;1.25;0.50;;;;;;;6.09;62.43;100117.61;1757955;81;21055;-75
2023/10/09 01:55:28;;;;;;;1.42;0.40;;;;;;;6.10;62.29;100117.95;1741705;82;20988;-75
2023/10/09 01:57:45;;;;;;;1.02;0.40;;;;;;;6.09;62.26;100109.45;1756803;81;21027;-74
2023/10/09 02:00:22;;;;;;;0.35;0.20;;;;;;;6.11;62.23;100116.92;1741641;82;21027;-74
2023/10/09 02:02:45;;;;;;;1.15;0.50;;;;;;;6.13;62.04;100119.81;1757943;81;21074;-75
2023/10/09 02:07:51;;;;;;;1.05;0.40;;;;;;;6.16;61.75;100122.17;1759078;81;21431;-75
2023/10/09 02:10:31;;;;;;;2.25;0.60;;;;;;;6.16;61.53;100131.70;1741595;82;21048;-75
2023/10/09 02:13:11;;;;;;;0.53;0.40;;;;;;;6.13;61.54;100133.92;1758514;81;21071;-75
2023/10/09 02:26:17;;;;;;;2.50;0.53;;;;;;;6.13;61.44;100140.72;1741584;82;21040;-75
2023/10/09 02:28:43;;;;;;;2.98;0.57;;;;;;;6.13;61.46;100141.56;1758206;81;21047;-74
2023/10/09 02:31:12;;;;;;;0.40;0.30;;;;;;;6.13;61.47;100157.89;1741541;82;21059;-75
2023/10/09 02:33:41;;;;;;;1.32;0.30;;;;;;;6.16;61.62;100152.61;1758896;81;20999;-76
2023/10/09 02:36:12;;;;;;;2.15;0.40;;;;;;;6.14;61.93;100151.94;1741492;82;21023;-75
2023/10/09 02:38:42;;;;;;;2.65;0.40;;;;;;;6.09;62.08;100163.34;1758614;81;21062;-75
2023/10/09 02:43:46;;;;;;;0.98;0.47;;;;;;;6.02;62.69;100167.78;1758841;81;21070;-75
2023/10/09 02:46:20;;;;;;;2.17;0.55;;;;;;;6.00;62.78;100172.03;1741604;82;21071;-75
2023/10/09 02:48:53;;;;;;;2.77;0.55;;;;;;;5.98;62.93;100165.92;1758948;81;21023;-75
2023/10/09 02:53:57;;;;;;;1.35;0.42;;;;;;;5.98;63.22;100171.36;1759048;81;21474;-74
2023/10/09 02:56:43;;;;;;;1.92;0.50;;;;;;;5.99;63.32;100175.78;1741455;82;21521;-74
2023/10/09 02:59:08;;;;;;;1.55;0.90;;;;;;;5.99;63.38;100174.42;1758575;81;21016;-75
2023/10/09 03:01:40;;;;;;;3.30;0.53;;;;;;;6.02;63.44;100177.30;1741594;82;20988;-75
2023/10/09 03:04:14;;;;;;;0.57;0.40;;;;;;;6.06;63.35;100183.23;1758755;81;21031;-75
2023/10/09 03:06:49;;;;;;;1.02;0.47;;;;;;;6.09;63.37;100178.81;1741253;82;21056;-75
2023/10/09 03:09:17;;;;;;;1.55;0.47;;;;;;;6.08;63.32;100186.63;1757193;81;21024;-74
2023/10/09 03:11:53;;;;;;;1.87;0.40;;;;;;;6.06;63.15;100176.44;1741529;82;21007;-75
2023/10/09 03:14:20;;;;;;;1.40;0.60;;;;;;;6.03;63.13;100185.28;1758671;81;21062;-74
2023/10/09 03:16:49;;;;;;;1.40;0.60;;;;;;;6.02;63.12;100187.66;1741468;82;21480;-75
2023/10/09 03:19:18;;;;;;;1.62;0.55;;;;;;;5.99;63.21;100194.81;1758608;81;21043;-75
2023/10/09 03:21:46;;;;;;;1.00;0.40;;;;;;;5.96;63.35;100191.08;1741455;82;21043;-74
2023/10/09 03:24:15;;;;;;;1.12;0.35;;;;;;;5.90;63.57;100193.64;1758952;81;21007;-77
2023/10/09 03:26:45;;;;;;;0.70;0.40;;;;;;;5.85;63.89;100191.89;1741320;82;21056;-75
2023/10/09 03:29:14;;;;;;;1.07;0.45;;;;;;;5.82;64.37;100204.47;1758854;81;21015;-75
2023/10/09 03:31:43;;;;;;;2.47;0.50;;;;;;;5.77;64.56;100204.13;1741589;82;21027;-75
2023/10/09 03:34:11;;;;;;;3.62;0.70;;;;;;;5.73;64.83;100198.19;1758796;81;20996;-75
2023/10/09 03:36:43;;;;;;;2.22;0.40;;;;;;;5.73;65.00;100198.19;1741467;82;21048;-74
2023/10/09 03:39:24;;;;;;;1.22;0.70;;;;;;;5.72;65.25;100207.37;1758919;81;21007;-75
2023/10/09 03:41:50;;;;;;;1.15;0.45;;;;;;;5.70;65.40;100214.33;1741092;82;21063;-75
2023/10/09 03:44:19;;;;;;;1.22;0.57;;;;;;;5.66;65.71;100209.41;1758791;81;21031;-75
2023/10/09 03:46:51;;;;;;;0.60;0.40;;;;;;;5.57;66.09;100211.79;1741511;82;21083;-75
2023/10/09 03:49:23;;;;;;;1.02;0.40;;;;;;;5.51;66.43;100216.55;1758784;81;21094;-76
2023/10/09 03:51:49;;;;;;;1.85;0.60;;;;;;;5.45;66.79;100207.20;1741644;82;21028;-74
2023/10/09 03:54:22;;;;;;;1.45;0.65;;;;;;;5.41;67.06;100211.28;1758969;81;21047;-74
2023/10/09 03:56:51;;;;;;;1.32;0.75;;;;;;;5.36;67.22;100218.58;1741542;82;21060;-74
2023/10/09 03:59:20;;;;;;;2.65;0.53;;;;;;;5.32;67.43;100222.65;1758764;81;21467;-74
2023/10/09 04:01:52;;;;;;;1.20;0.50;;;;;;;5.29;67.68;100226.22;1741435;82;21432;-76
2023/10/09 04:04:23;;;;;;;1.85;0.60;;;;;;;5.25;67.84;100221.62;1758787;81;21082;-75
2023/10/09 04:06:53;;;;;;;1.20;0.70;;;;;;;5.23;67.99;100233.16;1741568;82;21490;-74
2023/10/09 04:14:54;;;;;;;1.55;0.80;;;;;;;5.19;68.24;100249.42;1758744;81;21054;-75
2023/10/09 04:22:49;;;;;;;3.05;0.62;;;;;;;5.19;68.37;100250.78;1750130;82;21086;-75
2023/10/09 04:25:14;;;;;;;2.05;1.00;;;;;;;5.21;68.30;100252.86;1748708;82;21087;-74
2023/10/09 04:27:41;;;;;;;2.50;0.78;;;;;;;5.24;68.31;100245.73;1750042;82;21008;-73
2023/10/09 04:30:16;;;;;;;1.92;0.82;;;;;;;5.25;68.22;100243.86;1725275;82;21497;-75
2023/10/09 04:32:44;;;;;;;1.87;0.70;;;;;;;5.23;68.04;100249.47;1740718;82;21048;-75
2023/10/09 04:38:00;;;;;;;3.65;0.75;;;;;;;5.25;67.90;100254.22;1741491;82;21016;-75
2023/10/09 04:43:09;;;;;;;1.10;0.60;;;;;;;5.29;67.59;100272.39;1741297;82;21060;-73
2023/10/09 04:48:32;;;;;;;1.57;0.65;;;;;;;5.28;67.42;100270.19;1741308;82;21032;-75
2023/10/09 04:50:58;;;;;;;2.20;1.00;;;;;;;5.28;67.30;100281.05;1721544;83;21022;-72
2023/10/09 04:55:53;;;;;;;0.72;0.50;;;;;;;5.26;67.19;100288.52;1725234;83;21023;-74
2023/10/09 04:58:23;;;;;;;2.02;0.93;;;;;;;5.25;66.86;100292.25;1740234;82;21087;-75
2023/10/09 05:03:28;;;;;;;1.30;0.80;;;;;;;5.22;66.75;100300.73;1741528;82;21055;-74
2023/10/09 05:06:20;;;;;;;1.42;0.75;;;;;;;5.23;66.65;100305.66;1725211;82;21062;-76
2023/10/09 05:08:32;;;;;;;2.47;0.70;;;;;;;5.24;66.56;100308.71;1738220;82;21056;-76
2023/10/09 05:16:19;;;;;;;2.27;0.50;;;;;;;5.33;66.23;100307.72;1700276;83;21474;-76
2023/10/09 05:19:08;;;;;;;4.42;1.40;;;;;;;5.36;65.79;100316.89;1741206;82;21542;-74
2023/10/09 05:37:32;;;;;;;1.70;1.00;;;;;;;5.49;65.14;100324.56;1741670;82;21044;-75
2023/10/09 05:42:57;;;;;;;4.80;1.40;;;;;;;5.57;64.80;100351.75;1741655;82;21047;-76
2023/10/09 06:04:54;;;;;;;6.72;1.10;;;;;;;5.77;63.27;100349.06;1741495;82;21004;-75
2023/10/09 06:07:13;;;;;;;4.33;0.90;;;;;;;5.81;63.23;100353.15;1754995;81;21506;-75
2023/10/09 06:09:55;;;;;;;1.82;0.85;;;;;;;5.86;62.60;100356.24;1740733;82;21558;-76
2023/10/09 06:15:50;;;;;;;1.72;0.72;;;;;;;5.87;61.99;100344.34;1741695;82;21031;-76
2023/10/09 06:17:51;;;;;;;3.30;0.82;;;;;;;5.89;61.81;100350.50;1754919;81;21035;-77
2023/10/09 06:23:16;;;;;;;2.22;1.17;;;;;;;5.98;61.52;100366.31;1758873;81;21071;-74
2023/10/09 06:25:51;;;;;;;2.47;0.80;;;;;;;6.01;61.33;100383.14;1741529;82;21004;-77
2023/10/09 06:28:33;;;;;;;3.55;1.05;;;;;;;6.06;61.11;100381.78;1758755;81;21487;-77
2023/10/09 06:30:52;;;;;;;1.72;0.72;;;;;;;6.09;60.96;100384.16;1739570;82;21507;-76
2023/10/09 06:33:29;;;;;;;1.60;0.80;;;;;;;6.10;60.69;100386.72;1758757;81;21000;-76
2023/10/09 06:35:54;;;;;;;5.33;1.25;;;;;;;6.11;60.48;100379.41;1757798;81;21027;-75
2023/10/09 06:38:33;;;;;;;3.02;0.70;;;;;;;6.12;60.50;100390.63;1741694;82;21047;-76
2023/10/09 06:43:43;;;;;;;5.10;1.45;;;;;;;6.20;60.24;100381.11;1741623;82;21047;-77
2023/10/09 06:48:57;;;;;;;1.75;0.68;;;;;;;6.25;60.14;100402.70;1741488;82;21008;-74
2023/10/09 06:59:21;;;;;;;2.35;0.95;;;;;;;6.28;59.26;100398.80;1741402;82;21043;-75
2023/10/09 07:02:25;;;;;;;4.50;0.85;;;;;;;6.29;59.36;100393.18;1725341;83;21483;-75
2023/10/09 07:04:19;;;;;;;2.70;1.05;;;;;;;6.34;59.41;100399.47;1746200;82;21032;-77
2023/10/09 07:06:51;;;;;;;3.87;0.90;;;;;;;6.40;59.43;100404.23;1741737;82;21471;-75
2023/10/09 07:09:20;;;;;;;2.42;0.90;;;;;;;6.45;59.09;100389.60;1758653;81;21031;-74
2023/10/09 07:15:01;;;;;;;2.12;0.60;;;;;;;6.54;58.73;100402.21;1758901;81;21043;-76
2023/10/09 07:17:21;;;;;;;5.72;1.32;;;;;;;6.57;58.27;100384.69;1737883;82;21091;-75
2023/10/09 07:22:29;;;;;;;3.60;0.65;;;;;;;6.60;57.82;100404.25;1743710;82;21071;-75
2023/10/09 07:25:14;;;;;;;2.42;0.90;;;;;;;6.63;57.75;100401.69;1757074;81;21541;-75
2023/10/09 07:27:51;;;;;;;6.95;1.27;;;;;;;6.65;57.62;100396.41;1744542;82;21024;-74
2023/10/09 07:38:23;;;;;;;3.25;0.80;;;;;;;6.94;56.51;100424.95;1747243;82;21043;-76
2023/10/09 07:41:39;;;;;;;2.55;0.53;;;;;;;6.95;56.15;100433.45;1758726;81;21076;-75
2023/10/09 07:43:35;;;;;;;2.92;0.98;;;;;;;7.12;55.84;100431.03;1736058;81;21542;-75
2023/10/09 07:48:26;;;;;;;4.45;1.87;;;;;;;7.97;53.87;100430.36;1747077;82;21023;-75
2023/10/09 07:50:58;;;;;;;3.98;0.90;;;;;;;8.35;53.46;100432.17;1758923;81;21428;-75
2023/10/09 07:53:28;;;;;;;3.30;1.00;;;;;;;8.76;53.06;100427.75;1747028;82;21083;-75
2023/10/09 07:56:06;;;;;;;2.85;0.90;;;;;;;9.14;51.56;100433.53;1758876;81;21444;-76
2023/10/09 07:58:45;;;;;;;3.77;1.10;;;;;;;9.44;50.64;100440.36;1746978;82;21075;-75
2023/10/09 08:01:07;;;;;;;2.45;0.60;;;;;;;9.71;48.58;100430.09;1756539;81;21473;-73
2023/10/09 08:03:37;;;;;;;1.92;0.70;;;;;;;9.90;46.75;100430.55;1747055;82;21510;-75
2023/10/09 08:17:20;;;;;;;3.75;1.05;;;;;;;11.24;47.82;100418.78;1742087;82;21047;-75
2023/10/09 08:19:53;;;;;;;4.80;0.95;;;;;;;11.44;44.61;100408.77;1750204;81;21513;-77
2023/10/09 08:24:59;;;;;;;3.10;1.20;;;;;;;11.49;44.63;100417.76;1762392;81;21027;-75
2023/10/09 08:30:28;;;;;;;3.00;1.10;;;;;;;11.52;42.08;100416.83;1744608;81;21061;-76
2023/10/09 08:32:43;;;;;;;1.60;0.80;;;;;;;11.35;42.46;100418.21;1741620;81;21069;-74
2023/10/09 08:35:47;;;;;;;4.22;0.90;;;;;;;11.14;42.85;100421.04;1744706;82;21042;-73
2023/10/09 08:37:50;;;;;;;2.33;1.05;;;;;;;10.96;43.54;100431.95;1740882;82;21017;-74
2023/10/09 08:40:20;;;;;;;3.20;0.80;;;;;;;10.85;43.19;100429.77;1744718;82;21005;-75
2023/10/09 08:42:53;;;;;;;2.90;0.98;;;;;;;10.66;43.55;100442.78;1739489;81;21547;-75
2023/10/09 08:45:24;;;;;;;0.93;0.50;;;;;;;10.54;44.00;100423.81;1731711;83;21058;-76
2023/10/09 08:47:57;;;;;;;2.20;1.10;;;;;;;10.33;43.89;100435.59;1731679;83;21461;-77
2023/10/09 08:50:28;;;;;;;2.52;1.07;;;;;;;10.18;44.40;100441.09;1731773;83;21045;-75
2023/10/09 08:52:57;;;;;;;2.35;1.05;;;;;;;10.14;44.18;100432.94;1731822;83;21066;-75
2023/10/09 08:55:26;;;;;;;1.15;0.72;;;;;;;10.08;44.41;100435.08;1731764;83;21022;-75
2023/10/09 08:57:58;;;;;;;4.15;0.90;;;;;;;10.05;44.57;100431.36;1731669;83;21580;-77
2023/10/09 09:00:33;;;;;;;2.30;0.68;;;;;;;10.02;44.75;100442.18;1731718;83;21520;-75
2023/10/09 09:03:01;;;;;;;1.20;0.68;;;;;;;9.92;44.00;100438.05;1731868;83;21054;-75
2023/10/09 09:05:30;;;;;;;4.60;0.80;;;;;;;9.79;44.27;100432.75;1731785;81;21023;-77
2023/10/09 09:07:59;;;;;;;3.02;0.85;;;;;;;9.70;44.82;100440.71;1731548;83;21050;-76
2023/10/09 09:10:39;;;;;;;1.65;0.80;;;;;;;9.76;44.72;100438.61;1731532;83;21535;-77
2023/10/09 09:13:18;;;;;;;1.67;0.75;;;;;;;9.77;43.99;100435.35;1731812;83;21042;-76
2023/10/09 09:15:53;;;;;;;3.75;1.22;;;;;;;9.74;43.96;100438.44;1732001;83;21559;-77
2023/10/09 09:18:22;;;;;;;5.85;0.80;;;;;;;9.71;43.98;100447.03;1760530;80;21500;-77
2023/10/09 09:20:53;;;;;;;2.15;0.70;;;;;;;9.71;43.58;100441.04;1761956;81;21073;-75
2023/10/09 09:23:23;;;;;;;1.65;0.70;;;;;;;9.70;43.90;100443.97;1760425;81;21034;-76
2023/10/09 09:26:10;;;;;;;2.95;0.80;;;;;;;9.73;43.20;100448.53;1759026;81;21045;-75
2023/10/09 09:28:38;;;;;;;1.60;0.75;;;;;;;9.70;42.82;100443.45;1757965;81;21027;-74
2023/10/09 09:31:13;;;;;;;2.58;0.70;;;;;;;9.71;43.08;100435.56;1759144;81;21046;-75
2023/10/09 09:33:40;;;;;;;2.00;0.80;;;;;;;9.72;42.75;100441.88;1759122;81;21070;-77
2023/10/09 09:36:15;;;;;;;2.67;0.80;;;;;;;9.72;42.28;100450.94;1759238;81;21026;-77
2023/10/09 09:38:52;;;;;;;2.35;0.95;;;;;;;9.70;42.04;100432.50;1758999;80;21066;-78
2023/10/09 09:41:28;;;;;;;3.77;0.72;;;;;;;9.74;42.32;100446.13;1759262;81;21010;-77
2023/10/09 09:44:00;;;;;;;2.47;1.05;;;;;;;9.81;41.66;100439.41;1727777;81;21478;-77
2023/10/09 09:46:39;;;;;;;2.62;0.80;;;;;;;9.89;41.27;100442.55;1758999;81;21026;-77
2023/10/09 09:49:21;;;;;;;3.83;0.88;;;;;;;9.96;41.04;100442.10;1754893;81;21447;-75
2023/10/09 09:51:48;;;;;;;1.62;0.70;;;;;;;9.96;39.90;100429.78;1810342;79;21486;-79
2023/10/09 09:54:24;;;;;;;2.25;0.80;;;;;;;9.92;39.75;100430.69;1735143;82;21008;-75
2023/10/09 09:56:54;;;;;;;2.02;0.70;;;;;;;9.92;39.84;100424.38;1734729;82;21055;-75
2023/10/09 09:59:30;;;;;;;1.72;0.70;;;;;;;9.97;39.87;100430.96;1810544;79;21035;-79
2023/10/09 10:01:57;;;;;;;1.40;0.72;;;;;;;10.02;39.63;100426.27;1814592;79;21037;-76
2023/10/09 10:04:29;;;;;;;3.22;0.98;;;;;;;10.02;40.09;100426.27;1745904;82;21181;-78
2023/10/09 10:07:04;;;;;;;2.70;0.50;;;;;;;10.01;40.27;100428.69;1814891;79;21063;-78
2023/10/09 10:09:39;;;;;;;1.52;0.72;;;;;;;10.03;39.67;100437.55;1745749;82;21052;-79
2023/10/09 10:12:14;;;;;;;1.20;0.50;;;;;;;9.97;39.53;100428.75;1809655;79;21086;-76
2023/10/09 10:14:59;;;;;;;1.85;0.60;;;;;;;9.95;39.72;100430.30;1727389;82;21059;-74
2023/10/09 10:17:29;;;;;;;2.62;0.90;;;;;;;9.96;39.88;100438.00;1790864;79;21062;-76
2023/10/09 10:20:25;;;;;;;2.72;0.70;;;;;;;9.97;39.42;100422.75;1784456;80;21078;-76
2023/10/09 10:22:37;;;;;;;1.87;0.80;;;;;;;9.96;39.42;100412.84;1780952;79;21117;-76
2023/10/09 10:25:09;;;;;;;1.65;0.62;;;;;;;10.01;39.35;100428.69;1797701;79;21065;-76
2023/10/09 10:27:44;;;;;;;1.95;0.90;;;;;;;10.03;38.64;100403.34;1798794;80;21057;-78
2023/10/09 10:30:24;;;;;;;3.02;0.70;;;;;;;10.01;38.96;100417.73;1797557;80;21018;-77
2023/10/09 10:32:57;;;;;;;1.85;0.95;;;;;;;10.02;38.29;100423.02;1798644;78;21638;-79
2023/10/09 10:38:32;;;;;;;3.57;0.77;;;;;;;9.96;38.04;100412.84;1830004;78;20528;-77
2023/10/09 10:41:00;;;;;;;4.28;0.90;;;;;;;9.99;38.23;100404.24;1751093;81;21233;-78
2023/10/09 10:43:34;;;;;;;1.72;0.60;;;;;;;10.08;38.42;100411.29;1763811;80;21027;-78
2023/10/09 10:47:21;;;;;;;2.12;0.90;;;;;;;10.17;38.18;100421.59;1761315;80;21493;-77
2023/10/09 10:48:49;;;;;;;3.60;0.70;;;;;;;10.20;37.86;100416.25;1740552;80;21270;-77
2023/10/09 10:51:21;;;;;;;1.95;0.78;;;;;;;10.14;37.59;100406.41;1778931;80;21063;-77
2023/10/09 10:53:58;;;;;;;3.83;0.82;;;;;;;10.11;37.80;100401.84;1747961;81;21455;-77
2023/10/09 10:56:49;;;;;;;1.17;0.60;;;;;;;10.12;37.58;100407.13;1732792;81;21622;-77
2023/10/09 10:59:26;;;;;;;1.85;0.70;;;;;;;10.15;37.57;100403.99;1731736;81;21090;-76
2023/10/09 11:07:12;;;;;;;1.95;0.70;;;;;;;10.25;37.63;100384.53;1744452;81;21110;-74
2023/10/09 11:13:33;;;;;;;2.15;0.70;;;;;;;10.29;37.94;100381.73;1760918;80;21474;-75
2023/10/09 11:18:08;;;;;;;5.37;1.00;;;;;;;10.27;38.73;100376.13;1768867;80;21075;-79
2023/10/09 11:20:38;;;;;;;1.67;0.80;;;;;;;10.30;38.27;100382.58;1766161;80;20979;-76
2023/10/09 11:25:52;;;;;;;2.58;0.80;;;;;;;10.24;38.01;100382.84;1703877;83;21054;-78
2023/10/09 11:28:42;;;;;;;2.35;0.70;;;;;;;10.23;37.77;100372.93;1723487;82;21300;-77
2023/10/09 11:31:11;;;;;;;1.50;0.80;;;;;;;10.23;37.73;100378.41;1737533;82;21030;-78
2023/10/09 11:33:52;;;;;;;2.02;0.65;;;;;;;10.24;38.07;100373.25;1766595;81;21003;-78
2023/10/09 11:36:31;;;;;;;2.65;0.70;;;;;;;10.29;38.27;100380.36;1749155;82;21472;-77
2023/10/09 11:38:52;;;;;;;2.10;0.60;;;;;;;10.31;38.33;100376.91;1765264;81;21011;-79
2023/10/09 11:41:24;;;;;;;1.65;0.60;;;;;;;10.35;38.77;100371.36;1759728;80;21021;-78
2023/10/09 11:43:58;;;;;;;0.90;0.50;;;;;;;10.43;38.75;100371.77;1755333;81;21017;-75
2023/10/09 11:46:37;;;;;;;1.35;0.75;;;;;;;10.47;38.45;100367.07;1748932;82;21098;-76
2023/10/09 11:49:25;;;;;;;1.47;0.90;;;;;;;10.51;38.70;100381.22;1760082;80;21039;-76
2023/10/09 11:52:09;;;;;;;2.50;0.78;;;;;;;10.57;38.40;100378.20;1733673;82;21103;-77
2023/10/09 11:54:31;;;;;;;3.27;0.70;;;;;;;10.60;38.56;100378.66;1753779;81;21038;-78
2023/10/09 11:57:03;;;;;;;3.17;0.80;;;;;;;10.66;38.50;100381.97;1731913;82;21180;-78
2023/10/09 11:59:37;;;;;;;3.12;0.93;;;;;;;10.68;38.25;100386.73;1736970;82;21070;-76
2023/10/09 12:02:04;;;;;;;4.28;1.20;;;;;;;10.74;38.63;100383.72;1737645;82;21580;-77
2023/10/09 12:04:34;;;;;;;1.32;0.70;;;;;;;10.81;38.61;100380.50;1735646;81;21084;-78
2023/10/09 12:07:10;;;;;;;1.87;0.95;;;;;;;10.88;38.81;100384.14;1751768;81;21559;-78
2023/10/09 12:09:38;;;;;;;2.90;0.55;;;;;;;10.95;38.62;100382.81;1739905;81;21105;-77
2023/10/09 12:12:11;;;;;;;4.60;0.95;;;;;;;11.00;38.75;100383.91;1773221;80;21050;-76
2023/10/09 12:14:43;;;;;;;1.80;0.80;;;;;;;11.06;38.60;100380.39;1744278;82;21039;-75
2023/10/09 12:17:12;;;;;;;1.60;0.62;;;;;;;11.09;38.45;100388.21;1744121;81;21058;-76
2023/10/09 12:19:42;;;;;;;1.05;0.50;;;;;;;11.10;38.49;100383.05;1750851;81;21040;-74
2023/10/09 12:22:16;;;;;;;1.52;0.60;;;;;;;11.13;38.11;100376.84;1737974;82;21483;-77
2023/10/09 12:24:46;;;;;;;3.70;1.30;;;;;;;11.09;38.41;100383.25;1750748;82;21063;-76
2023/10/09 12:27:12;;;;;;;3.40;0.78;;;;;;;11.04;38.57;100374.22;1747266;81;21021;-76
2023/10/09 12:29:44;;;;;;;1.10;0.47;;;;;;;11.04;38.09;100376.13;1740062;81;21053;-78
2023/10/09 12:32:13;;;;;;;2.10;0.68;;;;;;;11.03;37.91;100365.67;1744334;81;21078;-78
2023/10/09 12:34:44;;;;;;;2.25;0.93;;;;;;;11.03;37.61;100378.02;1759759;81;21030;-77
2023/10/09 12:37:13;;;;;;;1.62;0.65;;;;;;;11.04;38.22;100368.74;1760035;81;21042;-76
2023/10/09 12:39:42;;;;;;;2.22;0.88;;;;;;;11.08;37.86;100366.48;1759944;81;21034;-76
2023/10/09 12:42:11;;;;;;;3.20;0.70;;;;;;;11.10;38.08;100367.97;1759579;81;21085;-75
2023/10/09 12:44:40;;;;;;;2.67;1.00;;;;;;;11.14;37.96;100359.34;1759550;81;21023;-75
2023/10/09 12:47:12;;;;;;;2.85;0.70;;;;;;;11.13;37.99;100364.50;1759861;81;21073;-77
2023/10/09 12:49:41;;;;;;;1.55;0.70;;;;;;;11.13;38.12;100355.75;1759686;81;21515;-75
2023/10/09 12:52:16;;;;;;;1.77;1.10;;;;;;;11.13;38.21;100357.12;1759695;81;20979;-82
2023/10/09 12:54:46;;;;;;;5.33;1.50;;;;;;;11.15;38.26;100353.65;1750797;81;21085;-76
2023/10/09 12:57:15;;;;;;;2.95;1.40;;;;;;;11.18;43.60;100353.77;1729507;82;21090;-74
2023/10/09 12:59:48;;;;;;;2.22;1.20;;;;;;;11.29;43.05;100354.04;1734661;81;20978;-74
2023/10/09 13:02:30;;;;;;;5.05;1.17;;;;;;;11.40;42.47;100351.23;1734864;81;21026;-76
2023/10/09 13:05:00;;;;;;;2.30;1.10;;;;;;;11.44;40.65;100356.64;1748995;81;21062;-75
2023/10/09 13:07:29;;;;;;;1.37;0.80;;;;;;;11.35;39.38;100351.85;1759540;81;21491;-77
2023/10/09 13:10:08;;;;;;;2.62;0.80;;;;;;;11.29;39.13;100355.41;1759981;81;21046;-76
2023/10/09 13:12:41;;;;;;;1.80;0.80;;;;;;;11.21;38.63;100351.47;1759084;81;21048;-76
2023/10/09 13:15:10;;;;;;;3.35;0.90;;;;;;;11.07;37.76;100348.33;1744053;81;21054;-75
2023/10/09 13:17:39;;;;;;;2.15;0.82;;;;;;;10.95;37.95;100357.61;1733735;81;21038;-76
2023/10/09 13:20:15;;;;;;;2.33;0.93;;;;;;;10.88;37.93;100356.72;1729493;83;21473;-77
2023/10/09 13:22:48;;;;;;;3.50;0.85;;;;;;;10.84;38.32;100358.17;1738218;81;21516;-78
2023/10/09 13:25:24;;;;;;;2.72;1.00;;;;;;;10.81;38.55;100353.09;1736470;81;21062;-79
2023/10/09 13:27:53;;;;;;;1.95;0.90;;;;;;;10.82;38.70;100364.38;1749474;81;21054;-77
2023/10/09 13:30:23;;;;;;;2.05;0.80;;;;;;;10.83;38.86;100360.59;1778178;81;21007;-75
2023/10/09 13:32:52;;;;;;;1.57;0.95;;;;;;;10.79;38.66;100356.56;1778119;80;21071;-77
2023/10/09 13:35:27;;;;;;;2.10;0.90;;;;;;;10.70;38.75;100360.50;1773869;81;21101;-76
2023/10/09 13:37:54;;;;;;;1.50;0.88;;;;;;;10.64;38.84;100358.56;1767375;81;21039;-75
2023/10/09 13:40:29;;;;;;;1.95;1.00;;;;;;;10.60;39.26;100354.52;1778338;81;21042;-76
2023/10/09 13:43:02;;;;;;;2.15;1.00;;;;;;;10.60;39.39;100355.89;1778074;81;21083;-74
2023/10/09 13:45:28;;;;;;;4.92;1.80;;;;;;;10.62;39.64;100355.17;1778049;80;21043;-76
2023/10/09 13:47:57;;;;;;;5.97;1.85;;;;;;;10.61;39.39;100346.63;1774239;81;21051;-77
2023/10/09 13:50:32;;;;;;;3.62;1.22;;;;;;;10.60;39.62;100349.04;1774276;81;21035;-76
2023/10/09 13:53:07;;;;;;;3.90;1.40;;;;;;;10.61;39.74;100352.11;1778203;80;21467;-76
2023/10/09 13:55:43;;;;;;;3.70;1.50;;;;;;;10.58;39.80;100351.13;1762513;81;21027;-77
2023/10/09 13:58:14;;;;;;;3.37;1.60;;;;;;;10.56;39.75;100349.12;1761878;81;21090;-76
2023/10/09 14:00:43;;;;;;;6.15;3.22;;;;;;;10.52;39.76;100350.03;1752389;80;21098;-77
2023/10/09 14:03:13;;;;;;;3.02;1.30;;;;;;;10.48;39.98;100352.33;1747371;82;21026;-77
2023/10/09 14:05:54;;;;;;;2.58;1.00;;;;;;;10.48;40.00;100350.95;1747306;82;21051;-78
2023/10/09 14:08:22;;;;;;;3.62;0.90;;;;;;;10.48;40.00;100348.22;1747528;82;21042;-77
2023/10/09 14:10:51;;;;;;;3.50;1.10;;;;;;;10.45;40.14;100352.72;1747404;82;21074;-77
2023/10/09 14:13:28;;;;;;;4.28;1.10;;;;;;;10.42;40.35;100358.59;1747565;82;21030;-76
2023/10/09 14:15:50;;;;;;;5.15;0.90;;;;;;;10.40;40.47;100361.18;1746566;82;21079;-78
2023/10/09 14:18:19;;;;;;;2.42;1.05;;;;;;;10.40;40.45;100362.55;1751708;81;21043;-75
2023/10/09 14:20:47;;;;;;;2.08;0.93;;;;;;;10.36;40.01;100359.36;1763162;81;21533;-75
2023/10/09 14:23:20;;;;;;;4.47;1.12;;;;;;;10.30;40.05;100364.77;1769314;80;21459;-76
2023/10/09 14:25:49;;;;;;;3.22;1.15;;;;;;;10.23;40.50;100361.98;1751202;82;21086;-76
2023/10/09 14:28:19;;;;;;;6.55;1.40;;;;;;;10.20;40.41;100363.73;1764589;80;21063;-76
2023/10/09 14:30:56;;;;;;;3.30;1.30;;;;;;;10.19;40.70;100364.75;1776391;80;21054;-75
2023/10/09 14:33:22;;;;;;;4.15;0.90;;;;;;;10.22;40.93;100358.06;1761248;80;21047;-76
2023/10/09 14:35:52;;;;;;;2.10;1.22;;;;;;;10.20;40.83;100362.37;1755348;80;21058;-77
2023/10/09 14:38:26;;;;;;;4.30;1.30;;;;;;;10.19;40.89;100368.86;1755747;80;21027;-76